Heidrick, KY (40949)

15:49 EST le 23 janvier 2017 (GMT -0500)
Mackey Bend | | Change Station

Alt. 1007 ft 36.82 °N, 83.96 °W | Updated 0 second ago

Couvert
Couvert
48.4 ° F
Paraît 46 ° F
N
5.0
Vent Variable Vent de Ouest

Aujourd'hui
Haut(e) -- | Bas -- ° F
--% Risque de précip.
Hier
Haut(e) -- | Bas -- ° F
Precip. -- pouce
Pression 29.46 pouce
Visibilité 6.0 Miles terrestres
Nuages Couvert 600 ft
Refroidissement éolien 46 ° F
Point de rosée 48 ° F
Humidité 98%
Précipitations 0.89 pouce
Profondeur de la couche neigeuse Non disponible.
7:43 AM 5:51 PM
Lune descendante, 16% visible
METAR KLOZ 231953Z AUTO 32010G18KT 290V350 6SM BR OVC006 09/07 A2947 RMK AO2 RAB02E15 CIG 005V011 SLP976 P0000 T00890067
Pression 29.46 pouce
Visibilité 6.0 Miles terrestres
Nuages Couvert 600 ft
Refroidissement éolien 46 ° F
Point de rosée 48 ° F
Humidité 98%
Précipitations 0.89 pouce
Profondeur de la couche neigeuse Non disponible.
7:43 AM 5:51 PM
Lune descendante, 16% visible
METAR KLOZ 231953Z AUTO 32010G18KT 290V350 6SM BR OVC006 09/07 A2947 RMK AO2 RAB02E15 CIG 005V011 SLP976 P0000 T00890067

Get Your Daily Forecast Email!

Thanks for signing up!

Be on the lookout for a verification email in your inbox.

You'll start receiving the daily forecast at 8 AM.

×

10-Day Weather Forecast

Almanac

Astronomie

Jan. 23, 2017 Lever Coucher
Temps réel
Crépuscule civil
Crépuscule nautique
Crépuscule astronomique
Lune
Durée de lumière visible
Longueur du jour
Tomorrow will be .
, % of the Moon is Illuminated

Extrêmes aujourd'hui

State Highs State Lows

Community

WunderPhotos

Upload Photos

1,962,540 Photos téléchargées !

WunderBlog® & News

Nearby

Qualité de l'air

  Qualité de l'air Indice de la qualité de l'air Polluant
Not available.

Épaisseur de neige

Station Depth Altitude

Activité sismique

Ville Distance Mag. Time & Date
Minimum magnitude displayed is 2.5.

Températures des eaux côtières

Lieu Température

Stations

Stations météo à proximité

Emplacement de la station Température Refroidissement éolien Point de rosée Humidité Vent Precip. Alt. Mise à jour Type
                   

Watches & Warnings

There are currently no watches in effect.